sensor_id;sensor_type;location;lat;lon;timestamp;pressure;altitude;pressure_sealevel;temperature;humidity
62548;BME280;48602;45.192;5.722;2023-01-29T00:01:05;100003.13;;;3.26;68.27
62548;BME280;48602;45.192;5.722;2023-01-29T00:03:32;99996.19;;;3.25;68.12
62548;BME280;48602;45.192;5.722;2023-01-29T00:05:58;99999.66;;;3.24;67.94
62548;BME280;48602;45.192;5.722;2023-01-29T00:08:24;100003.13;;;3.23;67.71
62548;BME280;48602;45.192;5.722;2023-01-29T00:10:49;100002.25;;;3.23;67.98
62548;BME280;48602;45.192;5.722;2023-01-29T00:13:15;99997.03;;;3.23;67.91
62548;BME280;48602;45.192;5.722;2023-01-29T00:15:40;99993.56;;;3.22;68.11
62548;BME280;48602;45.192;5.722;2023-01-29T00:18:06;99997.03;;;3.23;68.20
62548;BME280;48602;45.192;5.722;2023-01-29T00:20:32;99993.56;;;3.22;68.28
62548;BME280;48602;45.192;5.722;2023-01-29T00:22:58;99992.69;;;3.22;68.24
62548;BME280;48602;45.192;5.722;2023-01-29T00:25:23;99994.41;;;3.20;68.32
62548;BME280;48602;45.192;5.722;2023-01-29T00:27:49;99995.28;;;3.19;68.48
62548;BME280;48602;45.192;5.722;2023-01-29T00:30:15;99990.06;;;3.19;68.69
62548;BME280;48602;45.192;5.722;2023-01-29T00:32:43;99990.94;;;3.19;68.82
62548;BME280;48602;45.192;5.722;2023-01-29T00:35:09;99990.06;;;3.19;68.62
62548;BME280;48602;45.192;5.722;2023-01-29T00:37:35;99992.66;;;3.19;68.86
62548;BME280;48602;45.192;5.722;2023-01-29T00:40:00;99979.66;;;3.20;68.80
62548;BME280;48602;45.192;5.722;2023-01-29T00:42:26;99987.47;;;3.20;69.11
62548;BME280;48602;45.192;5.722;2023-01-29T00:45:10;99983.13;;;3.21;69.05
62548;BME280;48602;45.192;5.722;2023-01-29T00:47:36;99986.63;;;3.18;69.07
62548;BME280;48602;45.192;5.722;2023-01-29T00:50:09;99987.47;;;3.15;68.82
62548;BME280;48602;45.192;5.722;2023-01-29T00:52:35;99986.59;;;3.15;68.86
62548;BME280;48602;45.192;5.722;2023-01-29T00:55:02;99988.34;;;3.14;68.87
62548;BME280;48602;45.192;5.722;2023-01-29T00:57:29;99986.59;;;3.15;68.73
62548;BME280;48602;45.192;5.722;2023-01-29T00:59:56;99997.03;;;3.13;69.09
62548;BME280;48602;45.192;5.722;2023-01-29T01:02:22;99998.72;;;3.08;69.39
62548;BME280;48602;45.192;5.722;2023-01-29T01:05:07;100000.44;;;3.05;69.47
62548;BME280;48602;45.192;5.722;2023-01-29T01:07:38;100006.53;;;3.01;68.91
62548;BME280;48602;45.192;5.722;2023-01-29T01:10:04;99996.97;;;3.01;69.11
62548;BME280;48602;45.192;5.722;2023-01-29T01:12:45;99997.81;;;3.03;69.21
62548;BME280;48602;45.192;5.722;2023-01-29T01:15:11;100003.91;;;3.05;69.52
62548;BME280;48602;45.192;5.722;2023-01-29T01:17:36;100007.41;;;3.07;68.84
62548;BME280;48602;45.192;5.722;2023-01-29T01:20:02;100016.97;;;3.08;69.47
62548;BME280;48602;45.192;5.722;2023-01-29T01:22:28;100010.88;;;3.09;69.61
62548;BME280;48602;45.192;5.722;2023-01-29T01:24:53;100002.22;;;3.10;69.25
62548;BME280;48602;45.192;5.722;2023-01-29T01:27:19;100010.03;;;3.12;69.28
62548;BME280;48602;45.192;5.722;2023-01-29T01:29:45;100010.91;;;3.14;69.27
62548;BME280;48602;45.192;5.722;2023-01-29T01:32:11;100010.91;;;3.14;69.14
62548;BME280;48602;45.192;5.722;2023-01-29T01:34:37;100017.88;;;3.15;69.25
62548;BME280;48602;45.192;5.722;2023-01-29T01:37:02;100015.25;;;3.13;69.12
62548;BME280;48602;45.192;5.722;2023-01-29T01:39:28;100015.25;;;3.12;69.24
62548;BME280;48602;45.192;5.722;2023-01-29T01:41:54;100017.00;;;3.13;69.19
62548;BME280;48602;45.192;5.722;2023-01-29T01:44:58;100012.63;;;3.12;68.99
62548;BME280;48602;45.192;5.722;2023-01-29T01:47:39;100020.47;;;3.12;69.33
62548;BME280;48602;45.192;5.722;2023-01-29T01:50:14;100016.13;;;3.12;69.24
62548;BME280;48602;45.192;5.722;2023-01-29T01:52:44;100023.06;;;3.10;69.27
62548;BME280;48602;45.192;5.722;2023-01-29T01:55:13;100026.53;;;3.09;69.21
62548;BME280;48602;45.192;5.722;2023-01-29T01:57:42;100014.34;;;3.08;69.30
62548;BME280;48602;45.192;5.722;2023-01-29T02:00:13;100024.78;;;3.08;69.35
62548;BME280;48602;45.192;5.722;2023-01-29T02:02:42;100020.44;;;3.07;69.61
62548;BME280;48602;45.192;5.722;2023-01-29T02:05:32;100020.41;;;3.06;69.64
62548;BME280;48602;45.192;5.722;2023-01-29T02:08:41;100021.28;;;3.05;69.69
62548;BME280;48602;45.192;5.722;2023-01-29T02:11:27;100022.13;;;3.04;69.50
62548;BME280;48602;45.192;5.722;2023-01-29T02:13:53;100025.63;;;3.04;69.97
62548;BME280;48602;45.192;5.722;2023-01-29T02:16:20;100023.88;;;3.03;69.71
62548;BME280;48602;45.192;5.722;2023-01-29T02:18:45;100022.13;;;3.04;69.62
62548;BME280;48602;45.192;5.722;2023-01-29T02:21:28;100022.16;;;3.05;69.66
62548;BME280;48602;45.192;5.722;2023-01-29T02:27:16;100042.13;;;3.05;69.56
62548;BME280;48602;45.192;5.722;2023-01-29T02:30:05;100040.38;;;3.04;69.47
62548;BME280;48602;45.192;5.722;2023-01-29T02:32:41;100043.84;;;3.04;69.84
62548;BME280;48602;45.192;5.722;2023-01-29T02:35:27;100043.84;;;3.04;69.50
62548;BME280;48602;45.192;5.722;2023-01-29T02:40:44;100050.81;;;3.07;69.43
62548;BME280;48602;45.192;5.722;2023-01-29T02:49:12;100058.66;;;3.10;69.24
62548;BME280;48602;45.192;5.722;2023-01-29T02:51:49;100059.53;;;3.10;69.14
62548;BME280;48602;45.192;5.722;2023-01-29T02:54:18;100066.47;;;3.10;69.58
62548;BME280;48602;45.192;5.722;2023-01-29T02:56:51;100062.13;;;3.10;69.27
62548;BME280;48602;45.192;5.722;2023-01-29T02:59:22;100063.84;;;3.10;69.33
62548;BME280;48602;45.192;5.722;2023-01-29T03:01:56;100058.66;;;3.11;69.55
62548;BME280;48602;45.192;5.722;2023-01-29T03:04:30;100064.75;;;3.12;69.77
62548;BME280;48602;45.192;5.722;2023-01-29T03:07:04;100072.56;;;3.12;69.31
62548;BME280;48602;45.192;5.722;2023-01-29T03:09:43;100078.63;;;3.12;69.63
62548;BME280;48602;45.192;5.722;2023-01-29T03:12:21;100081.22;;;3.11;69.85
62548;BME280;48602;45.192;5.722;2023-01-29T03:15:01;100087.28;;;3.08;69.74
62548;BME280;48602;45.192;5.722;2023-01-29T03:17:51;100098.56;;;3.07;69.74
62548;BME280;48602;45.192;5.722;2023-01-29T03:20:21;100097.69;;;3.07;69.98
62548;BME280;48602;45.192;5.722;2023-01-29T03:22:56;100090.75;;;3.07;69.98
62548;BME280;48602;45.192;5.722;2023-01-29T03:25:25;100091.63;;;3.08;70.09
62548;BME280;48602;45.192;5.722;2023-01-29T03:28:13;100094.25;;;3.08;69.99
62548;BME280;48602;45.192;5.722;2023-01-29T03:31:04;100095.09;;;3.08;70.10
62548;BME280;48602;45.192;5.722;2023-01-29T03:36:44;100089.88;;;3.07;70.23
62548;BME280;48602;45.192;5.722;2023-01-29T03:39:12;100093.38;;;3.07;70.28
62548;BME280;48602;45.192;5.722;2023-01-29T03:41:47;100095.97;;;3.09;69.95
62548;BME280;48602;45.192;5.722;2023-01-29T03:44:51;100095.97;;;3.07;70.15
62548;BME280;48602;45.192;5.722;2023-01-29T03:55:59;100108.09;;;3.01;70.35
62548;BME280;48602;45.192;5.722;2023-01-29T03:58:36;100115.03;;;2.99;70.16
62548;BME280;48602;45.192;5.722;2023-01-29T04:01:29;100115.03;;;2.97;70.20
62548;BME280;48602;45.192;5.722;2023-01-29T04:04:13;100125.41;;;2.94;70.29
62548;BME280;48602;45.192;5.722;2023-01-29T04:06:40;100118.44;;;2.92;70.38
62548;BME280;48602;45.192;5.722;2023-01-29T04:09:17;100123.66;;;2.92;70.57
62548;BME280;48602;45.192;5.722;2023-01-29T04:11:56;100121.91;;;2.91;70.56
62548;BME280;48602;45.192;5.722;2023-01-29T04:14:23;100125.38;;;2.90;70.31
62548;BME280;48602;45.192;5.722;2023-01-29T04:16:56;100124.50;;;2.89;70.61
62548;BME280;48602;45.192;5.722;2023-01-29T04:19:24;100131.44;;;2.89;70.43
62548;BME280;48602;45.192;5.722;2023-01-29T04:21:54;100134.91;;;2.88;70.16
62548;BME280;48602;45.192;5.722;2023-01-29T04:24:24;100137.50;;;2.88;70.33
62548;BME280;48602;45.192;5.722;2023-01-29T04:27:26;100132.28;;;2.86;70.00
62548;BME280;48602;45.192;5.722;2023-01-29T04:29:56;100129.69;;;2.85;69.79
62548;BME280;48602;45.192;5.722;2023-01-29T04:38:15;100120.94;;;2.76;69.12
62548;BME280;48602;45.192;5.722;2023-01-29T04:43:44;100120.91;;;2.72;68.80
62548;BME280;48602;45.192;5.722;2023-01-29T04:46:54;100122.59;;;2.68;68.54
62548;BME280;48602;45.192;5.722;2023-01-29T04:49:44;100113.06;;;2.69;68.52
62548;BME280;48602;45.192;5.722;2023-01-29T04:59:51;100118.28;;;2.66;68.28
62548;BME280;48602;45.192;5.722;2023-01-29T05:02:22;100114.78;;;2.64;68.64
62548;BME280;48602;45.192;5.722;2023-01-29T05:04:48;100120.88;;;2.66;68.49
62548;BME280;48602;45.192;5.722;2023-01-29T05:07:16;100113.94;;;2.65;68.49
62548;BME280;48602;45.192;5.722;2023-01-29T05:09:44;100118.25;;;2.64;67.92
62548;BME280;48602;45.192;5.722;2023-01-29T05:12:12;100114.78;;;2.64;68.06
62548;BME280;48602;45.192;5.722;2023-01-29T05:14:40;100115.66;;;2.63;67.90
62548;BME280;48602;45.192;5.722;2023-01-29T05:17:13;100120.84;;;2.63;67.66
62548;BME280;48602;45.192;5.722;2023-01-29T05:19:40;100129.50;;;2.62;67.57
62548;BME280;48602;45.192;5.722;2023-01-29T05:22:08;100125.16;;;2.61;66.75
62548;BME280;48602;45.192;5.722;2023-01-29T05:24:36;100128.63;;;2.60;67.12
62548;BME280;48602;45.192;5.722;2023-01-29T05:27:02;100127.75;;;2.58;67.02
62548;BME280;48602;45.192;5.722;2023-01-29T05:29:47;100126.84;;;2.56;66.68
62548;BME280;48602;45.192;5.722;2023-01-29T05:32:13;100125.97;;;2.55;66.46
62548;BME280;48602;45.192;5.722;2023-01-29T05:34:39;100123.38;;;2.54;66.40
62548;BME280;48602;45.192;5.722;2023-01-29T05:37:05;100117.28;;;2.52;66.46
62548;BME280;48602;45.192;5.722;2023-01-29T05:39:30;100125.06;;;2.52;66.20
62548;BME280;48602;45.192;5.722;2023-01-29T05:41:56;100128.56;;;2.51;66.19
62548;BME280;48602;45.192;5.722;2023-01-29T05:44:21;100139.84;;;2.50;66.07
62548;BME280;48602;45.192;5.722;2023-01-29T05:46:46;100133.75;;;2.48;66.47
62548;BME280;48602;45.192;5.722;2023-01-29T05:49:12;100148.50;;;2.49;65.86
62548;BME280;48602;45.192;5.722;2023-01-29T05:51:37;100145.88;;;2.47;66.00
62548;BME280;48602;45.192;5.722;2023-01-29T05:54:03;100147.59;;;2.47;65.62
62548;BME280;48602;45.192;5.722;2023-01-29T05:56:29;100157.16;;;2.46;65.88
62548;BME280;48602;45.192;5.722;2023-01-29T05:58:54;100154.56;;;2.48;65.70
62548;BME280;48602;45.192;5.722;2023-01-29T06:01:22;100166.72;;;2.49;65.70
62548;BME280;48602;45.192;5.722;2023-01-29T06:03:49;100158.06;;;2.50;65.27
62548;BME280;48602;45.192;5.722;2023-01-29T06:06:15;100165.88;;;2.50;65.67
62548;BME280;48602;45.192;5.722;2023-01-29T06:08:40;100165.88;;;2.51;65.66
62548;BME280;48602;45.192;5.722;2023-01-29T06:11:08;100171.09;;;2.51;65.37
62548;BME280;48602;45.192;5.722;2023-01-29T06:13:34;100172.78;;;2.49;65.08
62548;BME280;48602;45.192;5.722;2023-01-29T06:15:59;100170.19;;;2.48;65.29
62548;BME280;48602;45.192;5.722;2023-01-29T06:18:25;100173.66;;;2.48;65.12
62548;BME280;48602;45.192;5.722;2023-01-29T06:20:50;100178.84;;;2.48;64.90
62548;BME280;48602;45.192;5.722;2023-01-29T06:23:15;100185.78;;;2.46;64.56
62548;BME280;48602;45.192;5.722;2023-01-29T06:25:41;100178.81;;;2.45;64.52
62548;BME280;48602;45.192;5.722;2023-01-29T06:28:06;100184.00;;;2.43;64.51
62548;BME280;48602;45.192;5.722;2023-01-29T06:30:32;100183.13;;;2.43;64.65
62548;BME280;48602;45.192;5.722;2023-01-29T06:32:58;100178.78;;;2.42;64.42
62548;BME280;48602;45.192;5.722;2023-01-29T06:35:24;100188.31;;;2.40;64.55
62548;BME280;48602;45.192;5.722;2023-01-29T06:37:49;100194.38;;;2.40;64.66
62548;BME280;48602;45.192;5.722;2023-01-29T06:40:15;100192.66;;;2.42;64.62
62548;BME280;48602;45.192;5.722;2023-01-29T06:42:40;100204.81;;;2.42;64.58
62548;BME280;48602;45.192;5.722;2023-01-29T06:45:06;100209.16;;;2.43;64.25
62548;BME280;48602;45.192;5.722;2023-01-29T06:47:31;100199.59;;;2.42;64.65
62548;BME280;48602;45.192;5.722;2023-01-29T06:49:57;100214.38;;;2.43;64.27
62548;BME280;48602;45.192;5.722;2023-01-29T06:52:22;100229.09;;;2.42;64.39
62548;BME280;48602;45.192;5.722;2023-01-29T06:54:49;100241.25;;;2.43;64.45
62548;BME280;48602;45.192;5.722;2023-01-29T06:57:15;100242.13;;;2.44;64.35
62548;BME280;48602;45.192;5.722;2023-01-29T06:59:40;100249.91;;;2.42;64.27
62548;BME280;48602;45.192;5.722;2023-01-29T07:02:05;100255.13;;;2.42;64.30
62548;BME280;48602;45.192;5.722;2023-01-29T07:04:31;100258.59;;;2.41;64.36
62548;BME280;48602;45.192;5.722;2023-01-29T07:06:58;100262.03;;;2.40;64.28
62548;BME280;48602;45.192;5.722;2023-01-29T07:09:23;100273.28;;;2.38;64.28
62548;BME280;48602;45.192;5.722;2023-01-29T07:11:49;100275.88;;;2.38;64.38
62548;BME280;48602;45.192;5.722;2023-01-29T07:14:14;100270.69;;;2.38;64.48
62548;BME280;48602;45.192;5.722;2023-01-29T07:16:40;100268.94;;;2.37;64.46
62548;BME280;48602;45.192;5.722;2023-01-29T07:19:05;100283.69;;;2.38;63.97
62548;BME280;48602;45.192;5.722;2023-01-29T07:21:30;100276.75;;;2.37;64.16
62548;BME280;48602;45.192;5.722;2023-01-29T07:23:56;100277.59;;;2.36;64.04
62548;BME280;48602;45.192;5.722;2023-01-29T07:26:21;100283.66;;;2.36;63.90
62548;BME280;48602;45.192;5.722;2023-01-29T07:28:47;100280.19;;;2.36;63.59
62548;BME280;48602;45.192;5.722;2023-01-29T07:31:13;100275.84;;;2.33;63.67
62548;BME280;48602;45.192;5.722;2023-01-29T07:33:39;100278.44;;;2.32;63.75
62548;BME280;48602;45.192;5.722;2023-01-29T07:36:08;100274.09;;;2.32;63.67
62548;BME280;48602;45.192;5.722;2023-01-29T07:38:36;100277.56;;;2.31;63.95
62548;BME280;48602;45.192;5.722;2023-01-29T07:41:01;100285.31;;;2.28;63.84
62548;BME280;48602;45.192;5.722;2023-01-29T07:43:27;100287.94;;;2.28;63.98
62548;BME280;48602;45.192;5.722;2023-01-29T07:45:52;100285.34;;;2.30;63.56
62548;BME280;48602;45.192;5.722;2023-01-29T07:48:18;100294.91;;;2.31;63.73
62548;BME280;48602;45.192;5.722;2023-01-29T07:50:43;100291.44;;;2.30;63.60
62548;BME280;48602;45.192;5.722;2023-01-29T07:53:12;100295.75;;;2.30;63.11
62548;BME280;48602;45.192;5.722;2023-01-29T07:55:38;100297.47;;;2.29;63.42
62548;BME280;48602;45.192;5.722;2023-01-29T07:58:04;100305.25;;;2.28;63.32
62548;BME280;48602;45.192;5.722;2023-01-29T08:00:30;100302.66;;;2.28;63.35
62548;BME280;48602;45.192;5.722;2023-01-29T08:03:08;100306.13;;;2.28;63.23
62548;BME280;48602;45.192;5.722;2023-01-29T08:05:35;100320.03;;;2.29;63.14
62548;BME280;48602;45.192;5.722;2023-01-29T08:08:00;100324.38;;;2.30;63.34
62548;BME280;48602;45.192;5.722;2023-01-29T08:10:26;100330.47;;;2.32;63.27
62548;BME280;48602;45.192;5.722;2023-01-29T08:12:59;100336.56;;;2.35;63.38
62548;BME280;48602;45.192;5.722;2023-01-29T08:15:26;100344.41;;;2.37;63.03
62548;BME280;48602;45.192;5.722;2023-01-29T08:17:52;100345.25;;;2.36;63.05
62548;BME280;48602;45.192;5.722;2023-01-29T08:20:18;100345.25;;;2.36;63.00
62548;BME280;48602;45.192;5.722;2023-01-29T08:22:44;100352.25;;;2.40;63.34
62548;BME280;48602;45.192;5.722;2023-01-29T08:25:09;100348.84;;;2.44;63.01
62548;BME280;48602;45.192;5.722;2023-01-29T08:27:35;100349.72;;;2.46;62.83
62548;BME280;48602;45.192;5.722;2023-01-29T08:30:01;100347.16;;;2.48;63.18
62548;BME280;48602;45.192;5.722;2023-01-29T08:32:26;100347.19;;;2.51;62.79
62548;BME280;48602;45.192;5.722;2023-01-29T08:34:51;100342.84;;;2.53;62.44
62548;BME280;48602;45.192;5.722;2023-01-29T08:37:17;100349.81;;;2.54;62.26
62548;BME280;48602;45.192;5.722;2023-01-29T08:39:42;100345.47;;;2.54;62.40
62548;BME280;48602;45.192;5.722;2023-01-29T08:42:08;100348.06;;;2.54;62.22
62548;BME280;48602;45.192;5.722;2023-01-29T08:44:33;100334.22;;;2.55;62.46
62548;BME280;48602;45.192;5.722;2023-01-29T08:46:58;100334.22;;;2.57;62.29
62548;BME280;48602;45.192;5.722;2023-01-29T08:49:24;100329.91;;;2.59;62.35
62548;BME280;48602;45.192;5.722;2023-01-29T08:51:49;100327.34;;;2.62;62.33
62548;BME280;48602;45.192;5.722;2023-01-29T08:54:18;100325.66;;;2.64;61.91
62548;BME280;48602;45.192;5.722;2023-01-29T08:56:44;100320.47;;;2.67;61.75
62548;BME280;48602;45.192;5.722;2023-01-29T08:59:09;100320.47;;;2.67;61.90
62548;BME280;48602;45.192;5.722;2023-01-29T09:01:35;100316.16;;;2.70;61.94
62548;BME280;48602;45.192;5.722;2023-01-29T09:04:00;100317.06;;;2.74;61.86
62548;BME280;48602;45.192;5.722;2023-01-29T09:06:26;100309.31;;;2.78;61.63
62548;BME280;48602;45.192;5.722;2023-01-29T09:08:51;100302.38;;;2.79;61.40
62548;BME280;48602;45.192;5.722;2023-01-29T09:11:17;100295.47;;;2.83;60.89
62548;BME280;48602;45.192;5.722;2023-01-29T09:13:42;100296.38;;;2.85;61.30
62548;BME280;48602;45.192;5.722;2023-01-29T09:16:08;100297.25;;;2.88;61.21
62548;BME280;48602;45.192;5.722;2023-01-29T09:18:33;100296.41;;;2.92;61.14
62548;BME280;48602;45.192;5.722;2023-01-29T09:20:59;100294.72;;;2.96;61.48
62548;BME280;48602;45.192;5.722;2023-01-29T09:23:27;100293.91;;;3.00;60.94
62548;BME280;48602;45.192;5.722;2023-01-29T09:25:52;100296.53;;;3.04;60.62
62548;BME280;48602;45.192;5.722;2023-01-29T09:28:17;100291.34;;;3.07;60.42
62548;BME280;48602;45.192;5.722;2023-01-29T09:30:43;100300.06;;;3.09;60.60
62548;BME280;48602;45.192;5.722;2023-01-29T09:33:09;100305.31;;;3.14;60.59
62548;BME280;48602;45.192;5.722;2023-01-29T09:35:34;100311.47;;;3.24;60.93
62548;BME280;48602;45.192;5.722;2023-01-29T09:38:00;100315.91;;;3.34;60.63
62548;BME280;48602;45.192;5.722;2023-01-29T09:40:31;100320.31;;;3.42;60.26
62548;BME280;48602;45.192;5.722;2023-01-29T09:43:17;100325.59;;;3.53;60.14
62548;BME280;48602;45.192;5.722;2023-01-29T09:45:59;100324.81;;;3.62;59.92
62548;BME280;48602;45.192;5.722;2023-01-29T09:48:29;100325.75;;;3.73;60.01
62548;BME280;48602;45.192;5.722;2023-01-29T09:50:57;100338.88;;;3.83;60.44
62548;BME280;48602;45.192;5.722;2023-01-29T09:53:39;100344.06;;;3.86;60.36
62548;BME280;48602;45.192;5.722;2023-01-29T09:56:11;100339.78;;;3.93;59.98
62548;BME280;48602;45.192;5.722;2023-01-29T09:58:42;100340.69;;;3.98;60.98
62548;BME280;48602;45.192;5.722;2023-01-29T10:12:45;100350.44;;;4.36;60.97
62548;BME280;48602;45.192;5.722;2023-01-29T10:15:36;100349.63;;;4.44;61.09
62548;BME280;48602;45.192;5.722;2023-01-29T10:18:32;100348.78;;;4.56;60.95
62548;BME280;48602;45.192;5.722;2023-01-29T10:24:29;100344.47;;;4.70;60.64
62548;BME280;48602;45.192;5.722;2023-01-29T10:26:57;100346.25;;;4.76;60.89
62548;BME280;48602;45.192;5.722;2023-01-29T10:29:24;100330.59;;;4.80;60.69
62548;BME280;48602;45.192;5.722;2023-01-29T10:31:56;100339.31;;;4.84;60.47
62548;BME280;48602;45.192;5.722;2023-01-29T10:34:40;100341.94;;;4.91;60.16
62548;BME280;48602;45.192;5.722;2023-01-29T10:37:27;100328.03;;;5.00;59.96
62548;BME280;48602;45.192;5.722;2023-01-29T10:39:56;100331.53;;;5.10;60.36
62548;BME280;48602;45.192;5.722;2023-01-29T10:45:38;100312.34;;;5.20;59.67
62548;BME280;48602;45.192;5.722;2023-01-29T10:48:30;100311.50;;;5.25;59.21
62548;BME280;48602;45.192;5.722;2023-01-29T10:51:21;100311.50;;;5.35;59.37
62548;BME280;48602;45.192;5.722;2023-01-29T10:54:33;100314.09;;;5.42;58.93
62548;BME280;48602;45.192;5.722;2023-01-29T11:02:45;100311.47;;;5.56;57.31
62548;BME280;48602;45.192;5.722;2023-01-29T11:05:35;100308.88;;;5.57;57.23
62548;BME280;48602;45.192;5.722;2023-01-29T11:08:11;100308.88;;;5.59;56.95
62548;BME280;48602;45.192;5.722;2023-01-29T11:10:44;100305.38;;;5.63;56.99
62548;BME280;48602;45.192;5.722;2023-01-29T11:13:14;100306.25;;;5.68;56.22
62548;BME280;48602;45.192;5.722;2023-01-29T11:15:40;100304.47;;;5.72;56.46
62548;BME280;48602;45.192;5.722;2023-01-29T11:18:08;100305.34;;;5.80;55.99
62548;BME280;48602;45.192;5.722;2023-01-29T11:20:40;100298.38;;;5.85;56.06
62548;BME280;48602;45.192;5.722;2023-01-29T11:23:23;100297.50;;;5.86;55.91
62548;BME280;48602;45.192;5.722;2023-01-29T11:25:52;100294.88;;;5.84;56.14
62548;BME280;48602;45.192;5.722;2023-01-29T11:31:14;100295.72;;;5.88;55.39
62548;BME280;48602;45.192;5.722;2023-01-29T11:33:40;100301.88;;;5.91;55.11
62548;BME280;48602;45.192;5.722;2023-01-29T11:36:29;100300.13;;;5.98;55.07
62548;BME280;48602;45.192;5.722;2023-01-29T11:39:22;100301.88;;;6.01;54.88
62548;BME280;48602;45.192;5.722;2023-01-29T11:41:54;100301.88;;;6.02;54.77
62548;BME280;48602;45.192;5.722;2023-01-29T11:44:30;100299.19;;;6.07;54.76
62548;BME280;48602;45.192;5.722;2023-01-29T11:49:56;100295.72;;;6.14;54.10
62548;BME280;48602;45.192;5.722;2023-01-29T11:52:39;100295.69;;;6.17;54.57
62548;BME280;48602;45.192;5.722;2023-01-29T11:55:19;100297.44;;;6.16;54.39
62548;BME280;48602;45.192;5.722;2023-01-29T11:58:06;100293.09;;;6.18;54.39
62548;BME280;48602;45.192;5.722;2023-01-29T12:00:39;100289.59;;;6.19;54.40
62548;BME280;48602;45.192;5.722;2023-01-29T12:03:21;100297.41;;;6.24;54.07
62548;BME280;48602;45.192;5.722;2023-01-29T12:06:01;100287.81;;;6.21;54.06
62548;BME280;48602;45.192;5.722;2023-01-29T12:08:34;100285.22;;;6.17;54.08
62548;BME280;48602;45.192;5.722;2023-01-29T12:11:22;100286.97;;;6.15;54.02
62548;BME280;48602;45.192;5.722;2023-01-29T12:13:53;100283.47;;;6.16;54.12
62548;BME280;48602;45.192;5.722;2023-01-29T12:16:24;100284.34;;;6.18;53.85
62548;BME280;48602;45.192;5.722;2023-01-29T12:24:34;100290.41;;;6.23;53.53
62548;BME280;48602;45.192;5.722;2023-01-29T12:27:24;100289.53;;;6.27;53.92
62548;BME280;48602;45.192;5.722;2023-01-29T12:32:33;100285.19;;;6.24;53.52
62548;BME280;48602;45.192;5.722;2023-01-29T12:37:37;100286.91;;;6.28;53.43
62548;BME280;48602;45.192;5.722;2023-01-29T12:40:16;100272.94;;;6.28;52.79
62548;BME280;48602;45.192;5.722;2023-01-29T12:42:48;100284.31;;;6.28;53.20
62548;BME280;48602;45.192;5.722;2023-01-29T12:45:22;100282.56;;;6.27;53.15
62548;BME280;48602;45.192;5.722;2023-01-29T12:47:56;100278.19;;;6.28;53.15
62548;BME280;48602;45.192;5.722;2023-01-29T12:50:35;100284.31;;;6.21;52.79
62548;BME280;48602;45.192;5.722;2023-01-29T12:55:45;100280.88;;;6.17;52.83
62548;BME280;48602;45.192;5.722;2023-01-29T12:58:20;100274.75;;;6.17;52.76
62548;BME280;48602;45.192;5.722;2023-01-29T13:00:49;100277.38;;;6.15;52.52
62548;BME280;48602;45.192;5.722;2023-01-29T13:03:28;100263.41;;;6.12;52.58
62548;BME280;48602;45.192;5.722;2023-01-29T13:06:13;100259.06;;;6.11;52.14
62548;BME280;48602;45.192;5.722;2023-01-29T13:08:44;100244.22;;;6.07;52.28
62548;BME280;48602;45.192;5.722;2023-01-29T13:11:32;100243.34;;;6.08;52.62
62548;BME280;48602;45.192;5.722;2023-01-29T13:14:05;100246.84;;;6.08;52.61
62548;BME280;48602;45.192;5.722;2023-01-29T13:16:37;100239.88;;;6.10;52.20
62548;BME280;48602;45.192;5.722;2023-01-29T13:22:25;100225.88;;;6.17;51.94
62548;BME280;48602;45.192;5.722;2023-01-29T13:24:52;100227.63;;;6.18;51.97
62548;BME280;48602;45.192;5.722;2023-01-29T13:27:26;100231.06;;;6.23;51.77
62548;BME280;48602;45.192;5.722;2023-01-29T13:29:54;100225.81;;;6.28;52.31
62548;BME280;48602;45.192;5.722;2023-01-29T13:32:29;100231.06;;;6.29;52.14
62548;BME280;48602;45.192;5.722;2023-01-29T13:34:58;100217.97;;;6.28;51.53
62548;BME280;48602;45.192;5.722;2023-01-29T13:37:33;100217.09;;;6.29;51.36
62548;BME280;48602;45.192;5.722;2023-01-29T13:40:00;100215.31;;;6.34;51.54
62548;BME280;48602;45.192;5.722;2023-01-29T13:45:04;100216.13;;;6.47;51.03
62548;BME280;48602;45.192;5.722;2023-01-29T13:47:33;100210.00;;;6.51;51.11
62548;BME280;48602;45.192;5.722;2023-01-29T13:50:34;100214.34;;;6.53;50.76
62548;BME280;48602;45.192;5.722;2023-01-29T13:53:02;100209.94;;;6.54;50.63
62548;BME280;48602;45.192;5.722;2023-01-29T13:55:31;100201.19;;;6.58;51.00
62548;BME280;48602;45.192;5.722;2023-01-29T14:00:47;100201.16;;;6.61;51.06
62548;BME280;48602;45.192;5.722;2023-01-29T14:05:56;100197.69;;;6.62;50.22
62548;BME280;48602;45.192;5.722;2023-01-29T14:13:40;100197.56;;;6.76;49.93
62548;BME280;48602;45.192;5.722;2023-01-29T14:18:35;100189.69;;;6.82;50.26
62548;BME280;48602;45.192;5.722;2023-01-29T14:21:22;100190.56;;;6.79;50.02
62548;BME280;48602;45.192;5.722;2023-01-29T14:23:54;100187.06;;;6.77;49.77
62548;BME280;48602;45.192;5.722;2023-01-29T14:26:22;100189.69;;;6.77;49.59
62548;BME280;48602;45.192;5.722;2023-01-29T14:34:13;100184.53;;;6.70;49.56
62548;BME280;48602;45.192;5.722;2023-01-29T14:36:41;100194.16;;;6.68;49.27
62548;BME280;48602;45.192;5.722;2023-01-29T14:41:55;100188.91;;;6.66;49.14
62548;BME280;48602;45.192;5.722;2023-01-29T14:59:01;100189.03;;;6.51;49.31
62548;BME280;48602;45.192;5.722;2023-01-29T15:01:34;100189.06;;;6.46;48.75
62548;BME280;48602;45.192;5.722;2023-01-29T15:06:48;100191.75;;;6.34;49.30
62548;BME280;48602;45.192;5.722;2023-01-29T15:09:30;100192.63;;;6.33;49.59
62548;BME280;48602;45.192;5.722;2023-01-29T15:12:09;100191.78;;;6.29;49.20
62548;BME280;48602;45.192;5.722;2023-01-29T15:14:41;100194.41;;;6.22;48.64
62548;BME280;48602;45.192;5.722;2023-01-29T15:19:42;100199.78;;;5.94;49.33
62548;BME280;48602;45.192;5.722;2023-01-29T15:22:20;100201.56;;;5.82;49.95
62548;BME280;48602;45.192;5.722;2023-01-29T15:25:00;100205.94;;;5.77;49.63
62548;BME280;48602;45.192;5.722;2023-01-29T15:27:27;100200.75;;;5.68;49.94
62548;BME280;48602;45.192;5.722;2023-01-29T15:29:57;100205.13;;;5.56;49.83
62548;BME280;48602;45.192;5.722;2023-01-29T15:32:34;100209.50;;;5.44;50.94